sensor_id;sensor_type;location;lat;lon;timestamp;P1;P2;P0
45990;PMS5003;31721;41.740;-88.000;2022-09-04T00:02:18;19;16;
45990;PMS5003;31721;41.740;-88.000;2022-09-04T00:04:59;17;14;
45990;PMS5003;31721;41.740;-88.000;2022-09-04T00:07:47;18;16;
45990;PMS5003;31721;41.740;-88.000;2022-09-04T00:10:22;14;13;
45990;PMS5003;31721;41.740;-88.000;2022-09-04T00:12:55;10;10;
45990;PMS5003;31721;41.740;-88.000;2022-09-04T00:15:29;11;11;
45990;PMS5003;31721;41.740;-88.000;2022-09-04T00:18:02;15;9;
45990;PMS5003;31721;41.740;-88.000;2022-09-04T00:20:36;13;13;
45990;PMS5003;31721;41.740;-88.000;2022-09-04T00:23:09;12;11;
45990;PMS5003;31721;41.740;-88.000;2022-09-04T00:25:45;12;11;
45990;PMS5003;31721;41.740;-88.000;2022-09-04T00:28:25;13;11;
45990;PMS5003;31721;41.740;-88.000;2022-09-04T00:31:01;12;12;
45990;PMS5003;31721;41.740;-88.000;2022-09-04T00:33:42;10;10;
45990;PMS5003;31721;41.740;-88.000;2022-09-04T00:36:17;13;11;
45990;PMS5003;31721;41.740;-88.000;2022-09-04T00:38:50;13;10;
45990;PMS5003;31721;41.740;-88.000;2022-09-04T00:41:26;11;11;
45990;PMS5003;31721;41.740;-88.000;2022-09-04T00:44:08;9;9;
45990;PMS5003;31721;41.740;-88.000;2022-09-04T00:47:27;12;12;
45990;PMS5003;31721;41.740;-88.000;2022-09-04T00:51:00;12;11;
45990;PMS5003;31721;41.740;-88.000;2022-09-04T00:53:40;12;12;
45990;PMS5003;31721;41.740;-88.000;2022-09-04T00:56:28;9;9;
45990;PMS5003;31721;41.740;-88.000;2022-09-04T00:59:10;14;10;
45990;PMS5003;31721;41.740;-88.000;2022-09-04T01:01:48;10;9;
45990;PMS5003;31721;41.740;-88.000;2022-09-04T01:04:22;12;10;
45990;PMS5003;31721;41.740;-88.000;2022-09-04T01:07:01;13;11;
45990;PMS5003;31721;41.740;-88.000;2022-09-04T01:09:47;9;8;
45990;PMS5003;31721;41.740;-88.000;2022-09-04T01:12:31;7;7;
45990;PMS5003;31721;41.740;-88.000;2022-09-04T01:15:07;14;14;
45990;PMS5003;31721;41.740;-88.000;2022-09-04T01:17:45;7;7;
45990;PMS5003;31721;41.740;-88.000;2022-09-04T01:20:26;5;5;
45990;PMS5003;31721;41.740;-88.000;2022-09-04T01:23:13;5;5;
45990;PMS5003;31721;41.740;-88.000;2022-09-04T01:25:59;9;8;
45990;PMS5003;31721;41.740;-88.000;2022-09-04T01:28:34;7;5;
45990;PMS5003;31721;41.740;-88.000;2022-09-04T01:31:13;4;4;
45990;PMS5003;31721;41.740;-88.000;2022-09-04T01:33:52;5;5;
45990;PMS5003;31721;41.740;-88.000;2022-09-04T01:36:34;6;5;
45990;PMS5003;31721;41.740;-88.000;2022-09-04T01:39:08;6;6;
45990;PMS5003;31721;41.740;-88.000;2022-09-04T01:41:37;6;5;
45990;PMS5003;31721;41.740;-88.000;2022-09-04T01:44:11;6;6;
45990;PMS5003;31721;41.740;-88.000;2022-09-04T01:46:49;4;4;
45990;PMS5003;31721;41.740;-88.000;2022-09-04T01:49:31;6;6;
45990;PMS5003;31721;41.740;-88.000;2022-09-04T01:52:07;5;4;
45990;PMS5003;31721;41.740;-88.000;2022-09-04T01:54:57;3;3;
45990;PMS5003;31721;41.740;-88.000;2022-09-04T01:57:35;5;5;
45990;PMS5003;31721;41.740;-88.000;2022-09-04T02:00:14;4;4;
45990;PMS5003;31721;41.740;-88.000;2022-09-04T02:02:51;5;5;
45990;PMS5003;31721;41.740;-88.000;2022-09-04T02:05:28;2;2;
45990;PMS5003;31721;41.740;-88.000;2022-09-04T02:08:03;1;1;
45990;PMS5003;31721;41.740;-88.000;2022-09-04T02:10:44;6;4;
45990;PMS5003;31721;41.740;-88.000;2022-09-04T02:13:20;2;2;
45990;PMS5003;31721;41.740;-88.000;2022-09-04T02:15:56;8;2;
45990;PMS5003;31721;41.740;-88.000;2022-09-04T02:18:36;5;5;
45990;PMS5003;31721;41.740;-88.000;2022-09-04T02:21:14;4;3;
45990;PMS5003;31721;41.740;-88.000;2022-09-04T02:23:53;4;3;
45990;PMS5003;31721;41.740;-88.000;2022-09-04T02:26:33;3;3;
45990;PMS5003;31721;41.740;-88.000;2022-09-04T02:29:07;2;2;
45990;PMS5003;31721;41.740;-88.000;2022-09-04T02:31:43;3;3;
45990;PMS5003;31721;41.740;-88.000;2022-09-04T02:34:20;2;2;
45990;PMS5003;31721;41.740;-88.000;2022-09-04T02:36:55;2;2;
45990;PMS5003;31721;41.740;-88.000;2022-09-04T02:39:33;4;2;
45990;PMS5003;31721;41.740;-88.000;2022-09-04T02:42:13;3;3;
45990;PMS5003;31721;41.740;-88.000;2022-09-04T02:44:48;3;3;
45990;PMS5003;31721;41.740;-88.000;2022-09-04T02:47:26;6;4;
45990;PMS5003;31721;41.740;-88.000;2022-09-04T02:50:06;4;4;
45990;PMS5003;31721;41.740;-88.000;2022-09-04T02:52:47;3;2;
45990;PMS5003;31721;41.740;-88.000;2022-09-04T02:55:33;5;5;
45990;PMS5003;31721;41.740;-88.000;2022-09-04T02:58:18;3;3;
45990;PMS5003;31721;41.740;-88.000;2022-09-04T03:01:04;4;3;
45990;PMS5003;31721;41.740;-88.000;2022-09-04T03:03:40;3;3;
45990;PMS5003;31721;41.740;-88.000;2022-09-04T03:06:13;2;2;
45990;PMS5003;31721;41.740;-88.000;2022-09-04T03:08:48;1;1;
45990;PMS5003;31721;41.740;-88.000;2022-09-04T03:11:25;2;2;
45990;PMS5003;31721;41.740;-88.000;2022-09-04T03:14:01;1;1;
45990;PMS5003;31721;41.740;-88.000;2022-09-04T03:16:36;1;1;
45990;PMS5003;31721;41.740;-88.000;2022-09-04T03:19:13;1;0;
45990;PMS5003;31721;41.740;-88.000;2022-09-04T03:21:45;0;0;
45990;PMS5003;31721;41.740;-88.000;2022-09-04T03:24:21;4;1;
45990;PMS5003;31721;41.740;-88.000;2022-09-04T03:26:52;3;2;
45990;PMS5003;31721;41.740;-88.000;2022-09-04T03:29:25;2;2;
45990;PMS5003;31721;41.740;-88.000;2022-09-04T03:32:05;3;3;
45990;PMS5003;31721;41.740;-88.000;2022-09-04T03:34:42;2;2;
45990;PMS5003;31721;41.740;-88.000;2022-09-04T03:37:25;6;6;
45990;PMS5003;31721;41.740;-88.000;2022-09-04T03:40:10;11;11;
45990;PMS5003;31721;41.740;-88.000;2022-09-04T03:42:47;22;22;
45990;PMS5003;31721;41.740;-88.000;2022-09-04T03:45:28;26;26;
45990;PMS5003;31721;41.740;-88.000;2022-09-04T03:48:10;42;42;
45990;PMS5003;31721;41.740;-88.000;2022-09-04T03:50:47;53;53;
45990;PMS5003;31721;41.740;-88.000;2022-09-04T03:53:24;30;30;
45990;PMS5003;31721;41.740;-88.000;2022-09-04T03:56:04;30;30;
45990;PMS5003;31721;41.740;-88.000;2022-09-04T03:58:46;28;28;
45990;PMS5003;31721;41.740;-88.000;2022-09-04T04:01:25;12;12;
45990;PMS5003;31721;41.740;-88.000;2022-09-04T04:04:11;7;7;
45990;PMS5003;31721;41.740;-88.000;2022-09-04T04:09:09;4;4;
45990;PMS5003;31721;41.740;-88.000;2022-09-04T04:11:53;5;5;
45990;PMS5003;31721;41.740;-88.000;2022-09-04T04:14:37;5;5;
45990;PMS5003;31721;41.740;-88.000;2022-09-04T04:17:25;5;5;
45990;PMS5003;31721;41.740;-88.000;2022-09-04T04:20:11;5;5;
45990;PMS5003;31721;41.740;-88.000;2022-09-04T04:22:52;2;2;
45990;PMS5003;31721;41.740;-88.000;2022-09-04T04:25:44;2;1;
45990;PMS5003;31721;41.740;-88.000;2022-09-04T04:28:31;2;2;
45990;PMS5003;31721;41.740;-88.000;2022-09-04T04:31:07;3;3;
45990;PMS5003;31721;41.740;-88.000;2022-09-04T04:33:47;1;1;
45990;PMS5003;31721;41.740;-88.000;2022-09-04T04:36:21;2;2;
45990;PMS5003;31721;41.740;-88.000;2022-09-04T04:39:00;2;2;
45990;PMS5003;31721;41.740;-88.000;2022-09-04T04:41:44;1;1;
45990;PMS5003;31721;41.740;-88.000;2022-09-04T04:44:23;2;2;
45990;PMS5003;31721;41.740;-88.000;2022-09-04T04:47:00;2;2;
45990;PMS5003;31721;41.740;-88.000;2022-09-04T04:49:39;0;0;
45990;PMS5003;31721;41.740;-88.000;2022-09-04T04:52:22;3;3;
45990;PMS5003;31721;41.740;-88.000;2022-09-04T04:55:03;0;0;
45990;PMS5003;31721;41.740;-88.000;2022-09-04T04:57:43;1;1;
45990;PMS5003;31721;41.740;-88.000;2022-09-04T05:00:18;1;1;
45990;PMS5003;31721;41.740;-88.000;2022-09-04T05:02:52;0;0;
45990;PMS5003;31721;41.740;-88.000;2022-09-04T05:05:42;4;3;
45990;PMS5003;31721;41.740;-88.000;2022-09-04T05:08:20;2;2;
45990;PMS5003;31721;41.740;-88.000;2022-09-04T05:10:59;2;2;
45990;PMS5003;31721;41.740;-88.000;2022-09-04T05:13:35;1;0;
45990;PMS5003;31721;41.740;-88.000;2022-09-04T05:16:14;1;1;
45990;PMS5003;31721;41.740;-88.000;2022-09-04T05:18:51;1;1;
45990;PMS5003;31721;41.740;-88.000;2022-09-04T05:21:27;0;0;
45990;PMS5003;31721;41.740;-88.000;2022-09-04T05:24:00;1;1;
45990;PMS5003;31721;41.740;-88.000;2022-09-04T05:26:36;1;1;
45990;PMS5003;31721;41.740;-88.000;2022-09-04T05:29:09;2;1;
45990;PMS5003;31721;41.740;-88.000;2022-09-04T05:31:45;2;2;
45990;PMS5003;31721;41.740;-88.000;2022-09-04T05:34:24;2;2;
45990;PMS5003;31721;41.740;-88.000;2022-09-04T05:37:00;5;5;
45990;PMS5003;31721;41.740;-88.000;2022-09-04T05:39:39;9;9;
45990;PMS5003;31721;41.740;-88.000;2022-09-04T05:42:30;9;9;
45990;PMS5003;31721;41.740;-88.000;2022-09-04T05:45:10;8;8;
45990;PMS5003;31721;41.740;-88.000;2022-09-04T05:47:50;10;10;
45990;PMS5003;31721;41.740;-88.000;2022-09-04T05:50:30;11;11;
45990;PMS5003;31721;41.740;-88.000;2022-09-04T05:53:18;7;7;
45990;PMS5003;31721;41.740;-88.000;2022-09-04T05:56:04;5;5;
45990;PMS5003;31721;41.740;-88.000;2022-09-04T05:58:51;2;2;
45990;PMS5003;31721;41.740;-88.000;2022-09-04T06:01:43;1;0;
45990;PMS5003;31721;41.740;-88.000;2022-09-04T06:04:29;1;1;
45990;PMS5003;31721;41.740;-88.000;2022-09-04T06:07:16;1;1;
45990;PMS5003;31721;41.740;-88.000;2022-09-04T06:09:57;8;8;
45990;PMS5003;31721;41.740;-88.000;2022-09-04T06:12:34;11;11;
45990;PMS5003;31721;41.740;-88.000;2022-09-04T06:16:19;13;13;
45990;PMS5003;31721;41.740;-88.000;2022-09-04T06:19:04;17;17;
45990;PMS5003;31721;41.740;-88.000;2022-09-04T06:21:51;14;14;
45990;PMS5003;31721;41.740;-88.000;2022-09-04T06:24:35;13;13;
45990;PMS5003;31721;41.740;-88.000;2022-09-04T06:27:24;13;13;
45990;PMS5003;31721;41.740;-88.000;2022-09-04T06:30:05;13;13;
45990;PMS5003;31721;41.740;-88.000;2022-09-04T06:32:38;11;11;
45990;PMS5003;31721;41.740;-88.000;2022-09-04T06:35:28;12;12;
45990;PMS5003;31721;41.740;-88.000;2022-09-04T06:38:16;15;15;
45990;PMS5003;31721;41.740;-88.000;2022-09-04T06:41:13;15;15;
45990;PMS5003;31721;41.740;-88.000;2022-09-04T06:43:54;21;20;
45990;PMS5003;31721;41.740;-88.000;2022-09-04T06:46:33;28;26;
45990;PMS5003;31721;41.740;-88.000;2022-09-04T06:49:12;24;24;
45990;PMS5003;31721;41.740;-88.000;2022-09-04T06:51:52;26;26;
45990;PMS5003;31721;41.740;-88.000;2022-09-04T06:54:36;35;35;
45990;PMS5003;31721;41.740;-88.000;2022-09-04T06:57:15;22;22;
45990;PMS5003;31721;41.740;-88.000;2022-09-04T07:00:04;33;33;
45990;PMS5003;31721;41.740;-88.000;2022-09-04T07:02:44;11;11;
45990;PMS5003;31721;41.740;-88.000;2022-09-04T07:05:28;29;29;
45990;PMS5003;31721;41.740;-88.000;2022-09-04T07:08:06;28;27;
45990;PMS5003;31721;41.740;-88.000;2022-09-04T07:10:41;28;28;
45990;PMS5003;31721;41.740;-88.000;2022-09-04T07:13:16;26;26;
45990;PMS5003;31721;41.740;-88.000;2022-09-04T07:16:33;30;30;
45990;PMS5003;31721;41.740;-88.000;2022-09-04T07:19:11;33;33;
45990;PMS5003;31721;41.740;-88.000;2022-09-04T07:21:56;33;32;
45990;PMS5003;31721;41.740;-88.000;2022-09-04T07:24:38;60;60;
45990;PMS5003;31721;41.740;-88.000;2022-09-04T07:27:23;39;39;
45990;PMS5003;31721;41.740;-88.000;2022-09-04T07:30:02;8;8;
45990;PMS5003;31721;41.740;-88.000;2022-09-04T07:32:35;25;23;
45990;PMS5003;31721;41.740;-88.000;2022-09-04T07:35:09;31;31;
45990;PMS5003;31721;41.740;-88.000;2022-09-04T07:37:44;24;24;
45990;PMS5003;31721;41.740;-88.000;2022-09-04T07:40:20;20;20;
45990;PMS5003;31721;41.740;-88.000;2022-09-04T07:42:54;18;17;
45990;PMS5003;31721;41.740;-88.000;2022-09-04T07:45:30;18;18;
45990;PMS5003;31721;41.740;-88.000;2022-09-04T07:48:07;19;19;
45990;PMS5003;31721;41.740;-88.000;2022-09-04T07:50:49;12;12;
45990;PMS5003;31721;41.740;-88.000;2022-09-04T07:53:25;14;14;
45990;PMS5003;31721;41.740;-88.000;2022-09-04T07:55:59;6;6;
45990;PMS5003;31721;41.740;-88.000;2022-09-04T07:58:45;12;12;
45990;PMS5003;31721;41.740;-88.000;2022-09-04T08:01:28;11;11;
45990;PMS5003;31721;41.740;-88.000;2022-09-04T08:04:12;1;1;
45990;PMS5003;31721;41.740;-88.000;2022-09-04T08:06:58;9;9;
45990;PMS5003;31721;41.740;-88.000;2022-09-04T08:09:36;11;11;
45990;PMS5003;31721;41.740;-88.000;2022-09-04T08:12:17;8;8;
45990;PMS5003;31721;41.740;-88.000;2022-09-04T08:15:00;12;12;
45990;PMS5003;31721;41.740;-88.000;2022-09-04T08:17:41;11;11;
45990;PMS5003;31721;41.740;-88.000;2022-09-04T08:20:26;10;10;
45990;PMS5003;31721;41.740;-88.000;2022-09-04T08:23:08;14;14;
45990;PMS5003;31721;41.740;-88.000;2022-09-04T08:25:55;11;11;
45990;PMS5003;31721;41.740;-88.000;2022-09-04T08:28:34;15;15;
45990;PMS5003;31721;41.740;-88.000;2022-09-04T08:31:15;13;13;
45990;PMS5003;31721;41.740;-88.000;2022-09-04T08:33:52;14;14;
45990;PMS5003;31721;41.740;-88.000;2022-09-04T08:36:34;13;13;
45990;PMS5003;31721;41.740;-88.000;2022-09-04T08:39:16;15;15;
45990;PMS5003;31721;41.740;-88.000;2022-09-04T08:42:12;16;16;
45990;PMS5003;31721;41.740;-88.000;2022-09-04T08:46:01;20;18;
45990;PMS5003;31721;41.740;-88.000;2022-09-04T08:49:46;20;20;
45990;PMS5003;31721;41.740;-88.000;2022-09-04T08:57:36;13;11;
45990;PMS5003;31721;41.740;-88.000;2022-09-04T09:00:15;16;16;
45990;PMS5003;31721;41.740;-88.000;2022-09-04T09:02:51;19;19;
45990;PMS5003;31721;41.740;-88.000;2022-09-04T09:07:22;9;9;
45990;PMS5003;31721;41.740;-88.000;2022-09-04T09:10:22;13;13;
45990;PMS5003;31721;41.740;-88.000;2022-09-04T09:17:59;18;18;
45990;PMS5003;31721;41.740;-88.000;2022-09-04T09:20:28;25;25;
45990;PMS5003;31721;41.740;-88.000;2022-09-04T09:23:14;23;23;
45990;PMS5003;31721;41.740;-88.000;2022-09-04T09:25:48;27;27;
45990;PMS5003;31721;41.740;-88.000;2022-09-04T09:28:24;24;24;
45990;PMS5003;31721;41.740;-88.000;2022-09-04T09:31:27;18;18;
45990;PMS5003;31721;41.740;-88.000;2022-09-04T09:34:51;16;16;
45990;PMS5003;31721;41.740;-88.000;2022-09-04T09:39:21;15;15;
45990;PMS5003;31721;41.740;-88.000;2022-09-04T09:42:12;12;12;
45990;PMS5003;31721;41.740;-88.000;2022-09-04T09:45:02;15;15;
45990;PMS5003;31721;41.740;-88.000;2022-09-04T09:48:01;17;17;
45990;PMS5003;31721;41.740;-88.000;2022-09-04T09:51:10;16;16;
45990;PMS5003;31721;41.740;-88.000;2022-09-04T09:54:23;11;11;
45990;PMS5003;31721;41.740;-88.000;2022-09-04T09:57:32;10;10;
45990;PMS5003;31721;41.740;-88.000;2022-09-04T10:00:44;14;13;
45990;PMS5003;31721;41.740;-88.000;2022-09-04T10:04:25;9;9;
45990;PMS5003;31721;41.740;-88.000;2022-09-04T10:07:16;9;9;
45990;PMS5003;31721;41.740;-88.000;2022-09-04T10:10:02;11;10;
45990;PMS5003;31721;41.740;-88.000;2022-09-04T10:13:07;11;10;
45990;PMS5003;31721;41.740;-88.000;2022-09-04T10:15:58;10;9;
45990;PMS5003;31721;41.740;-88.000;2022-09-04T10:19:50;16;16;
45990;PMS5003;31721;41.740;-88.000;2022-09-04T10:22:42;17;15;
45990;PMS5003;31721;41.740;-88.000;2022-09-04T10:25:30;19;19;
45990;PMS5003;31721;41.740;-88.000;2022-09-04T10:28:21;24;23;
45990;PMS5003;31721;41.740;-88.000;2022-09-04T10:31:14;23;23;
45990;PMS5003;31721;41.740;-88.000;2022-09-04T10:34:02;15;15;
45990;PMS5003;31721;41.740;-88.000;2022-09-04T10:36:42;21;19;
45990;PMS5003;31721;41.740;-88.000;2022-09-04T10:39:21;23;22;
45990;PMS5003;31721;41.740;-88.000;2022-09-04T10:41:59;16;14;
45990;PMS5003;31721;41.740;-88.000;2022-09-04T10:44:38;26;25;
45990;PMS5003;31721;41.740;-88.000;2022-09-04T10:47:25;18;18;
45990;PMS5003;31721;41.740;-88.000;2022-09-04T10:50:06;13;13;
45990;PMS5003;31721;41.740;-88.000;2022-09-04T10:52:51;20;20;
45990;PMS5003;31721;41.740;-88.000;2022-09-04T10:55:37;22;21;
45990;PMS5003;31721;41.740;-88.000;2022-09-04T10:58:27;19;19;
45990;PMS5003;31721;41.740;-88.000;2022-09-04T11:01:25;26;24;
45990;PMS5003;31721;41.740;-88.000;2022-09-04T11:08:41;27;27;
45990;PMS5003;31721;41.740;-88.000;2022-09-04T11:11:29;47;47;
45990;PMS5003;31721;41.740;-88.000;2022-09-04T11:14:32;8;7;
45990;PMS5003;31721;41.740;-88.000;2022-09-04T11:17:20;42;42;
45990;PMS5003;31721;41.740;-88.000;2022-09-04T11:20:13;6;6;
45990;PMS5003;31721;41.740;-88.000;2022-09-04T11:23:10;6;6;
45990;PMS5003;31721;41.740;-88.000;2022-09-04T11:26:02;25;23;
45990;PMS5003;31721;41.740;-88.000;2022-09-04T11:28:56;7;7;
45990;PMS5003;31721;41.740;-88.000;2022-09-04T11:31:34;8;8;
45990;PMS5003;31721;41.740;-88.000;2022-09-04T11:34:26;19;19;
45990;PMS5003;31721;41.740;-88.000;2022-09-04T11:38:14;28;28;
45990;PMS5003;31721;41.740;-88.000;2022-09-04T11:41:00;7;4;
45990;PMS5003;31721;41.740;-88.000;2022-09-04T11:43:53;34;33;
45990;PMS5003;31721;41.740;-88.000;2022-09-04T11:47:04;5;3;
45990;PMS5003;31721;41.740;-88.000;2022-09-04T11:49:51;4;4;
45990;PMS5003;31721;41.740;-88.000;2022-09-04T11:52:41;7;6;
45990;PMS5003;31721;41.740;-88.000;2022-09-04T11:55:56;5;5;
45990;PMS5003;31721;41.740;-88.000;2022-09-04T11:58:45;5;5;
45990;PMS5003;31721;41.740;-88.000;2022-09-04T12:01:27;7;7;
45990;PMS5003;31721;41.740;-88.000;2022-09-04T12:04:13;6;4;
45990;PMS5003;31721;41.740;-88.000;2022-09-04T12:06:59;4;4;
45990;PMS5003;31721;41.740;-88.000;2022-09-04T12:09:39;3;3;
45990;PMS5003;31721;41.740;-88.000;2022-09-04T12:12:26;5;5;
45990;PMS5003;31721;41.740;-88.000;2022-09-04T12:15:12;2;2;
45990;PMS5003;31721;41.740;-88.000;2022-09-04T12:18:55;3;3;
45990;PMS5003;31721;41.740;-88.000;2022-09-04T12:26:42;5;5;
45990;PMS5003;31721;41.740;-88.000;2022-09-04T12:29:30;6;5;
45990;PMS5003;31721;41.740;-88.000;2022-09-04T12:32:34;5;4;
45990;PMS5003;31721;41.740;-88.000;2022-09-04T12:35:38;8;8;
45990;PMS5003;31721;41.740;-88.000;2022-09-04T12:38:30;5;4;
45990;PMS5003;31721;41.740;-88.000;2022-09-04T12:41:14;7;7;
45990;PMS5003;31721;41.740;-88.000;2022-09-04T12:43:51;4;4;
45990;PMS5003;31721;41.740;-88.000;2022-09-04T12:46:32;6;5;
45990;PMS5003;31721;41.740;-88.000;2022-09-04T12:49:12;6;6;
45990;PMS5003;31721;41.740;-88.000;2022-09-04T12:51:59;21;20;
45990;PMS5003;31721;41.740;-88.000;2022-09-04T12:54:36;4;3;
45990;PMS5003;31721;41.740;-88.000;2022-09-04T12:57:15;5;5;
45990;PMS5003;31721;41.740;-88.000;2022-09-04T12:59:57;7;6;
45990;PMS5003;31721;41.740;-88.000;2022-09-04T13:02:33;3;3;
45990;PMS5003;31721;41.740;-88.000;2022-09-04T13:05:15;6;6;
45990;PMS5003;31721;41.740;-88.000;2022-09-04T13:07:58;7;4;
45990;PMS5003;31721;41.740;-88.000;2022-09-04T13:10:37;9;8;
45990;PMS5003;31721;41.740;-88.000;2022-09-04T13:13:17;9;9;
45990;PMS5003;31721;41.740;-88.000;2022-09-04T13:15:55;13;13;
45990;PMS5003;31721;41.740;-88.000;2022-09-04T13:18:36;24;23;
45990;PMS5003;31721;41.740;-88.000;2022-09-04T13:21:17;15;15;
45990;PMS5003;31721;41.740;-88.000;2022-09-04T13:23:57;11;11;
45990;PMS5003;31721;41.740;-88.000;2022-09-04T13:26:42;12;12;
45990;PMS5003;31721;41.740;-88.000;2022-09-04T13:29:23;11;11;
45990;PMS5003;31721;41.740;-88.000;2022-09-04T13:32:04;11;11;
45990;PMS5003;31721;41.740;-88.000;2022-09-04T13:34:49;8;8;
45990;PMS5003;31721;41.740;-88.000;2022-09-04T13:37:32;9;8;
45990;PMS5003;31721;41.740;-88.000;2022-09-04T13:40:13;7;5;
45990;PMS5003;31721;41.740;-88.000;2022-09-04T13:43:01;7;6;
45990;PMS5003;31721;41.740;-88.000;2022-09-04T13:45:44;6;6;
45990;PMS5003;31721;41.740;-88.000;2022-09-04T13:48:19;5;5;
45990;PMS5003;31721;41.740;-88.000;2022-09-04T13:50:53;8;8;
45990;PMS5003;31721;41.740;-88.000;2022-09-04T13:53:27;5;5;
45990;PMS5003;31721;41.740;-88.000;2022-09-04T13:56:02;12;11;
45990;PMS5003;31721;41.740;-88.000;2022-09-04T13:58:33;7;7;
45990;PMS5003;31721;41.740;-88.000;2022-09-04T14:01:06;8;7;
45990;PMS5003;31721;41.740;-88.000;2022-09-04T14:03:38;8;6;
45990;PMS5003;31721;41.740;-88.000;2022-09-04T14:06:09;7;7;
45990;PMS5003;31721;41.740;-88.000;2022-09-04T14:08:39;9;8;
45990;PMS5003;31721;41.740;-88.000;2022-09-04T14:11:14;9;8;
45990;PMS5003;31721;41.740;-88.000;2022-09-04T14:14:04;9;9;
45990;PMS5003;31721;41.740;-88.000;2022-09-04T14:16:43;11;10;
45990;PMS5003;31721;41.740;-88.000;2022-09-04T14:19:15;9;9;
45990;PMS5003;31721;41.740;-88.000;2022-09-04T14:21:57;9;8;
45990;PMS5003;31721;41.740;-88.000;2022-09-04T14:24:33;9;7;
45990;PMS5003;31721;41.740;-88.000;2022-09-04T14:27:09;7;7;
45990;PMS5003;31721;41.740;-88.000;2022-09-04T14:29:55;10;8;
45990;PMS5003;31721;41.740;-88.000;2022-09-04T14:32:34;9;9;
45990;PMS5003;31721;41.740;-88.000;2022-09-04T14:35:11;10;9;
45990;PMS5003;31721;41.740;-88.000;2022-09-04T14:37:49;7;7;
45990;PMS5003;31721;41.740;-88.000;2022-09-04T14:40:31;10;8;
45990;PMS5003;31721;41.740;-88.000;2022-09-04T14:43:03;10;10;
45990;PMS5003;31721;41.740;-88.000;2022-09-04T14:46:15;15;15;
45990;PMS5003;31721;41.740;-88.000;2022-09-04T14:48:49;8;8;
45990;PMS5003;31721;41.740;-88.000;2022-09-04T14:51:31;10;10;
45990;PMS5003;31721;41.740;-88.000;2022-09-04T14:54:02;9;7;
45990;PMS5003;31721;41.740;-88.000;2022-09-04T14:56:32;9;9;
45990;PMS5003;31721;41.740;-88.000;2022-09-04T14:59:10;7;7;
45990;PMS5003;31721;41.740;-88.000;2022-09-04T15:02:14;10;10;
45990;PMS5003;31721;41.740;-88.000;2022-09-04T15:04:49;8;8;
45990;PMS5003;31721;41.740;-88.000;2022-09-04T15:07:28;7;7;
45990;PMS5003;31721;41.740;-88.000;2022-09-04T15:10:17;7;6;
45990;PMS5003;31721;41.740;-88.000;2022-09-04T15:12:49;11;11;
45990;PMS5003;31721;41.740;-88.000;2022-09-04T15:15:25;7;7;
45990;PMS5003;31721;41.740;-88.000;2022-09-04T15:17:58;7;7;
45990;PMS5003;31721;41.740;-88.000;2022-09-04T15:20:35;10;9;
45990;PMS5003;31721;41.740;-88.000;2022-09-04T15:23:15;8;8;
45990;PMS5003;31721;41.740;-88.000;2022-09-04T15:25:51;9;9;
45990;PMS5003;31721;41.740;-88.000;2022-09-04T15:28:27;8;8;
45990;PMS5003;31721;41.740;-88.000;2022-09-04T15:31:03;10;9;
45990;PMS5003;31721;41.740;-88.000;2022-09-04T15:33:36;6;6;
45990;PMS5003;31721;41.740;-88.000;2022-09-04T15:36:07;8;7;
45990;PMS5003;31721;41.740;-88.000;2022-09-04T15:38:36;10;10;
45990;PMS5003;31721;41.740;-88.000;2022-09-04T15:41:14;6;6;
45990;PMS5003;31721;41.740;-88.000;2022-09-04T15:43:46;9;6;
45990;PMS5003;31721;41.740;-88.000;2022-09-04T15:46:19;8;8;
45990;PMS5003;31721;41.740;-88.000;2022-09-04T15:48:53;9;9;
45990;PMS5003;31721;41.740;-88.000;2022-09-04T15:51:37;11;10;
45990;PMS5003;31721;41.740;-88.000;2022-09-04T15:54:13;8;8;
45990;PMS5003;31721;41.740;-88.000;2022-09-04T15:56:54;10;9;
45990;PMS5003;31721;41.740;-88.000;2022-09-04T15:59:30;9;7;
45990;PMS5003;31721;41.740;-88.000;2022-09-04T16:02:09;8;7;
45990;PMS5003;31721;41.740;-88.000;2022-09-04T16:04:47;14;14;
45990;PMS5003;31721;41.740;-88.000;2022-09-04T16:07:23;10;9;
45990;PMS5003;31721;41.740;-88.000;2022-09-04T16:09:57;7;7;
45990;PMS5003;31721;41.740;-88.000;2022-09-04T16:12:36;7;6;
45990;PMS5003;31721;41.740;-88.000;2022-09-04T16:15:09;7;6;
45990;PMS5003;31721;41.740;-88.000;2022-09-04T16:17:43;6;5;
45990;PMS5003;31721;41.740;-88.000;2022-09-04T16:20:17;7;7;
45990;PMS5003;31721;41.740;-88.000;2022-09-04T16:22:50;6;6;
45990;PMS5003;31721;41.740;-88.000;2022-09-04T16:25:22;12;9;
45990;PMS5003;31721;41.740;-88.000;2022-09-04T16:27:53;8;8;
45990;PMS5003;31721;41.740;-88.000;2022-09-04T16:30:28;8;8;
45990;PMS5003;31721;41.740;-88.000;2022-09-04T16:33:01;11;10;
45990;PMS5003;31721;41.740;-88.000;2022-09-04T16:35:30;11;11;
45990;PMS5003;31721;41.740;-88.000;2022-09-04T16:38:04;6;6;
45990;PMS5003;31721;41.740;-88.000;2022-09-04T16:40:39;9;9;
45990;PMS5003;31721;41.740;-88.000;2022-09-04T16:43:17;9;9;
45990;PMS5003;31721;41.740;-88.000;2022-09-04T16:45:50;9;8;
45990;PMS5003;31721;41.740;-88.000;2022-09-04T16:48:30;11;9;
45990;PMS5003;31721;41.740;-88.000;2022-09-04T16:51:04;11;8;
45990;PMS5003;31721;41.740;-88.000;2022-09-04T16:53:37;9;9;
45990;PMS5003;31721;41.740;-88.000;2022-09-04T16:56:11;11;11;
45990;PMS5003;31721;41.740;-88.000;2022-09-04T16:58:49;10;10;
45990;PMS5003;31721;41.740;-88.000;2022-09-04T17:01:20;9;8;
45990;PMS5003;31721;41.740;-88.000;2022-09-04T17:04:01;13;11;
45990;PMS5003;31721;41.740;-88.000;2022-09-04T17:06:40;8;8;
45990;PMS5003;31721;41.740;-88.000;2022-09-04T17:09:16;9;9;
45990;PMS5003;31721;41.740;-88.000;2022-09-04T17:11:52;9;9;
45990;PMS5003;31721;41.740;-88.000;2022-09-04T17:14:25;9;9;
45990;PMS5003;31721;41.740;-88.000;2022-09-04T17:17:03;11;10;
45990;PMS5003;31721;41.740;-88.000;2022-09-04T17:19:33;8;8;
45990;PMS5003;31721;41.740;-88.000;2022-09-04T17:22:09;9;8;
45990;PMS5003;31721;41.740;-88.000;2022-09-04T17:24:44;8;8;
45990;PMS5003;31721;41.740;-88.000;2022-09-04T17:27:17;9;8;
45990;PMS5003;31721;41.740;-88.000;2022-09-04T17:29:51;8;8;
45990;PMS5003;31721;41.740;-88.000;2022-09-04T17:32:25;12;9;
45990;PMS5003;31721;41.740;-88.000;2022-09-04T17:35:00;9;9;
45990;PMS5003;31721;41.740;-88.000;2022-09-04T17:37:43;11;9;
45990;PMS5003;31721;41.740;-88.000;2022-09-04T17:40:17;9;9;
45990;PMS5003;31721;41.740;-88.000;2022-09-04T17:42:52;15;12;
45990;PMS5003;31721;41.740;-88.000;2022-09-04T17:45:30;11;11;
45990;PMS5003;31721;41.740;-88.000;2022-09-04T17:48:14;13;11;
45990;PMS5003;31721;41.740;-88.000;2022-09-04T17:50:49;14;11;
45990;PMS5003;31721;41.740;-88.000;2022-09-04T17:53:21;11;10;
45990;PMS5003;31721;41.740;-88.000;2022-09-04T17:55:52;8;8;
45990;PMS5003;31721;41.740;-88.000;2022-09-04T17:58:28;14;11;
45990;PMS5003;31721;41.740;-88.000;2022-09-04T18:01:03;12;10;
45990;PMS5003;31721;41.740;-88.000;2022-09-04T18:03:37;10;10;
45990;PMS5003;31721;41.740;-88.000;2022-09-04T18:06:12;10;10;
45990;PMS5003;31721;41.740;-88.000;2022-09-04T18:08:47;12;12;